Atlantic Clover — 3FVD6 — position and weather

sailwx.info

Track history (hours):
 
Tides and Currents Weather Stations Pressure Air Temp Water Temp Dewpoint Dewpoint Depression Visibility Wind Speed Wind Dir Waves Ship Positions

Atlantic Clover

Last reported at 2016-Apr-29 09:14 UTC. Time now 2016-May-02 01:20 UTC.
Position N 39°09' W 009°51'.

Length 180 m; draft 10.4 m.

Type: Cargo ship. MMSI: 371263000.

Date/timePositionNaut miles runAvg speedWind from/ knotsBaromVisibWave heightAir tempDewpointWater temp
2016-Apr-29 09:14N 39°09' W 009°51'812.2
2016-Apr-29 08:33N 39°01' W 009°52'1212.1
2016-Apr-29 07:33N 38°49' W 009°52'1212.4
2016-Apr-29 06:33N 38°37' W 009°50'1312.5
2016-Apr-29 05:33N 38°24' W 009°47'1312.5
2016-Apr-29 04:32N 38°12' W 009°43'1212.3
2016-Apr-29 03:33N 38°00' W 009°40'1212.3
2016-Apr-29 02:33N 37°48' W 009°36'1212.2
2016-Apr-29 01:33N 37°36' W 009°32'1612.2
2016-Apr-29 00:12N 37°20' W 009°28'812.1
2016-Apr-28 23:33N 37°13' W 009°25'1212.1
2016-Apr-28 22:32N 37°01' W 009°22'19511.5
2016-Apr-28 05:33N 35°59' W 005°31'10 9.8
2016-Apr-28 04:34N 36°02' W 005°20'19612.1
2016-Apr-27 12:24N 36°32' W 001°20'1312.4
2016-Apr-27 11:23N 36°34' W 001°04'1212.7
2016-Apr-27 10:28N 36°35' W 000°50'1212.7
2016-Apr-27 09:33N 36°37' W 000°36'1513.0
2016-Apr-27 08:24N 36°39' W 000°17'2412.8
2016-Apr-27 06:32N 36°43' E 000°12'1212.2
2016-Apr-27 05:33N 36°45' E 000°27'1412.5
2016-Apr-27 04:27N 36°46' E 000°44'1112.6
2016-Apr-27 03:34N 36°48' E 000°58'1412.3
2016-Apr-27 02:23N 36°50' E 001°16'1012.2
2016-Apr-27 01:33N 36°52' E 001°28'1212.5
2016-Apr-27 00:33N 36°53' E 001°44'1312.9
2016-Apr-26 23:33N 36°56' E 001°60'1313.0
2016-Apr-26 22:33N 36°57' E 002°16'1313.0
2016-Apr-26 21:34N 36°59' E 002°32'1312.8
2016-Apr-26 20:33N 37°01' E 002°48'1312.7
2016-Apr-26 19:33N 37°03' E 003°03'1212.1
2016-Apr-26 18:32N 37°04' E 003°19'1211.9
2016-Apr-26 17:31N 37°06' E 003°34'1212.7
2016-Apr-26 16:33N 37°08' E 003°49'46810.1
2016-Apr-24 18:28N 36°39' E 013°32'1110.9
2016-Apr-24 17:30N 36°35' E 013°45'1010.9
2016-Apr-24 16:33N 36°32' E 013°57'1111.0
2016-Apr-24 15:34N 36°29' E 014°10'1111.0
2016-Apr-24 14:33N 36°25' E 014°23'1110.7
2016-Apr-24 13:33N 36°22' E 014°36'1110.7
2016-Apr-24 12:33N 36°18' E 014°48'41011.7
2016-Apr-23 01:33N 36°25' E 023°17'1212.2
2016-Apr-23 00:33N 36°34' E 023°28'1212.3
2016-Apr-22 23:33N 36°42' E 023°39'1212.3
2016-Apr-22 22:34N 36°53' E 023°47'1312.8
2016-Apr-22 21:34N 37°04' E 023°53'1312.6
2016-Apr-22 20:33N 37°16' E 023°59'1212.4
2016-Apr-22 19:34N 37°27' E 024°05'1212.3
2016-Apr-22 18:34N 37°39' E 024°12'1312.7
2016-Apr-22 17:33N 37°48' E 024°23'1313.0
2016-Apr-22 16:34N 37°56' E 024°36'13612.3
2016-Apr-22 05:32N 39°58' E 025°54'1212.3
2016-Apr-22 04:33N 40°02' E 026°08'  
Track history (hours):
 
Tides and Currents Weather Stations Pressure Air Temp Water Temp Dewpoint Dewpoint Depression Visibility Wind Speed Wind Dir Waves Ship Positions

Atlantic Clover

Last reported at 2016-Apr-29 09:14 UTC. Time now 2016-May-02 01:20 UTC.
Position N 39°09' W 009°51'.

Length 180 m; draft 10.4 m.

Type: Cargo ship. MMSI: 371263000.

Date/timePositionNaut miles runAvg speedWind from/ knotsBaromVisibWave heightAir tempDewpointWater temp
2016-Apr-29 09:14N 39°09' W 009°51'812.2
2016-Apr-29 08:33N 39°01' W 009°52'1212.1
2016-Apr-29 07:33N 38°49' W 009°52'1212.4
2016-Apr-29 06:33N 38°37' W 009°50'1312.5
2016-Apr-29 05:33N 38°24' W 009°47'1312.5
2016-Apr-29 04:32N 38°12' W 009°43'1212.3
2016-Apr-29 03:33N 38°00' W 009°40'1212.3
2016-Apr-29 02:33N 37°48' W 009°36'1212.2
2016-Apr-29 01:33N 37°36' W 009°32'1612.2
2016-Apr-29 00:12N 37°20' W 009°28'812.1
2016-Apr-28 23:33N 37°13' W 009°25'1212.1
2016-Apr-28 22:32N 37°01' W 009°22'19511.5
2016-Apr-28 05:33N 35°59' W 005°31'10 9.8
2016-Apr-28 04:34N 36°02' W 005°20'19612.1
2016-Apr-27 12:24N 36°32' W 001°20'1312.4
2016-Apr-27 11:23N 36°34' W 001°04'1212.7
2016-Apr-27 10:28N 36°35' W 000°50'1212.7
2016-Apr-27 09:33N 36°37' W 000°36'1513.0
2016-Apr-27 08:24N 36°39' W 000°17'2412.8
2016-Apr-27 06:32N 36°43' E 000°12'1212.2
2016-Apr-27 05:33N 36°45' E 000°27'1412.5
2016-Apr-27 04:27N 36°46' E 000°44'1112.6
2016-Apr-27 03:34N 36°48' E 000°58'1412.3
2016-Apr-27 02:23N 36°50' E 001°16'1012.2
2016-Apr-27 01:33N 36°52' E 001°28'1212.5
2016-Apr-27 00:33N 36°53' E 001°44'1312.9
2016-Apr-26 23:33N 36°56' E 001°60'1313.0
2016-Apr-26 22:33N 36°57' E 002°16'1313.0
2016-Apr-26 21:34N 36°59' E 002°32'1312.8
2016-Apr-26 20:33N 37°01' E 002°48'1312.7
2016-Apr-26 19:33N 37°03' E 003°03'1212.1
2016-Apr-26 18:32N 37°04' E 003°19'1211.9
2016-Apr-26 17:31N 37°06' E 003°34'1212.7
2016-Apr-26 16:33N 37°08' E 003°49'46810.1
2016-Apr-24 18:28N 36°39' E 013°32'1110.9
2016-Apr-24 17:30N 36°35' E 013°45'1010.9
2016-Apr-24 16:33N 36°32' E 013°57'1111.0
2016-Apr-24 15:34N 36°29' E 014°10'1111.0
2016-Apr-24 14:33N 36°25' E 014°23'1110.7
2016-Apr-24 13:33N 36°22' E 014°36'1110.7
2016-Apr-24 12:33N 36°18' E 014°48'41011.7
2016-Apr-23 01:33N 36°25' E 023°17'1212.2
2016-Apr-23 00:33N 36°34' E 023°28'1212.3
2016-Apr-22 23:33N 36°42' E 023°39'1212.3
2016-Apr-22 22:34N 36°53' E 023°47'1312.8
2016-Apr-22 21:34N 37°04' E 023°53'1312.6
2016-Apr-22 20:33N 37°16' E 023°59'1212.4
2016-Apr-22 19:34N 37°27' E 024°05'1212.3
2016-Apr-22 18:34N 37°39' E 024°12'1312.7
2016-Apr-22 17:33N 37°48' E 024°23'1313.0
2016-Apr-22 16:34N 37°56' E 024°36'13612.3
2016-Apr-22 05:32N 39°58' E 025°54'1212.3
2016-Apr-22 04:33N 40°02' E 026°08'  

Dump ship's entire track history